Home > Products > Valid Products > TAF

000
FTUS46 KSGX 010233 AAA
TAFCRQ
TAF AMD
KCRQ 010233Z 0103/0124 19006KT P6SM FEW015 SCT200
     FM010430 16005KT P6SM OVC012
     FM011700 18005KT P6SM SCT018 SCT200
     FM011900 23008KT P6SM FEW020 SCT200=



000
FTUS46 KSGX 312320
TAFSAN
TAF
KSAN 312320Z 0100/0206 24008KT P6SM FEW020 SCT200
     FM010230 19005KT P6SM OVC017
     FM011500 18005KT P6SM BKN020
     FM011700 VRB06KT P6SM SCT022 SCT200
     FM012000 26008KT P6SM FEW022 SCT200
     FM020300 VRB04KT P6SM BKN020=



000
FTUS46 KSGX 312320
TAFCRQ
TAF
KCRQ 312320Z 0100/0124 24006KT P6SM FEW016 SCT200
      TEMPO 0100/0103 BKN015
     FM010300 16005KT P6SM OVC012
     FM011700 18005KT P6SM SCT018 SCT200
     FM011900 23008KT P6SM FEW020 SCT200=



000
FTUS46 KSGX 312320
TAFPSP
TAF
KPSP 312320Z 0100/0124 33018G28KT P6SM SCT200
     FM010600 35010KT P6SM SCT200
     FM010900 34006KT P6SM SCT200
     FM012300 33011KT P6SM SCT200=



000
FTUS46 KSGX 312320
TAFTRM
TAF
KTRM 312320Z 0100/0124 27008KT P6SM SCT200
     FM010200 33015G25KT P6SM SCT200
     FM010800 33010KT P6SM SCT200
     FM011200 VRB06KT P6SM SCT200=



000
FTUS46 KSGX 312320
TAFSNA
TAF
KSNA 312320Z 0100/0124 21008KT P6SM SCT200
     FM010200 VRB04KT P6SM SCT017 SCT200
     FM010500 17005KT P6SM OVC015
     FM011600 VRB05KT P6SM BKN020
     FM011700 VRB05KT P6SM SCT020 SCT200
     FM011900 21009KT P6SM SCT200=



000
FTUS46 KSGX 312320
TAFONT
TAF
KONT 312320Z 0100/0206 27011KT P6SM FEW200
     FM010400 VRB05KT P6SM FEW200
      TEMPO 0112/0115 5SM BR BKN008
     FM012000 26012KT P6SM SCT200
     FM020400 VRB05KT P6SM SCT200=



000
FTUS46 KSGX 312017 AAA
TAFSAN
TAF AMD
KSAN 312017Z 3120/0124 25008KT P6SM FEW020 SCT200
     FM010100 22005KT P6SM SCT020 SCT200
     FM010300 17005KT P6SM OVC017
     FM011500 18005KT P6SM BKN020
     FM011700 VRB06KT P6SM SCT022 SCT200
     FM012000 29008KT P6SM FEW022 SCT200=



000
FTUS46 KSGX 312017 AAA
TAFSAN
TAF AMD
KSAN 312017Z 3120/0124 25008KT P6SM FEW020 SCT200
     FM010100 22005KT P6SM SCT020 SCT200
     FM010300 17005KT P6SM OVC017
     FM011500 18005KT P6SM BKN020
     FM011700 VRB06KT P6SM SCT022 SCT200
     FM012000 29008KT P6SM FEW022 SCT200=



000
FTUS46 KSGX 311723
TAFONT
TAF
KONT 311723Z 3118/0124 VRB04KT P6SM SCT200
     FM312000 26012KT P6SM SCT200
     FM010500 25006KT P6SM FEW200
     FM011200 VRB04KT 3SM BR BKN005
     FM011600 VRB05KT 5SM HZ SCT010
     FM012000 26012KT P6SM SCT200=



000
FTUS46 KSGX 311723
TAFCRQ
TAF
KCRQ 311723Z 3118/0118 VRB05KT P6SM SCT010 SCT200
      TEMPO 3118/3119 6SM BR BKN010
     FM312000 24009KT P6SM FEW012 SCT200
     FM010000 VRB05KT P6SM SCT012 SCT200
     FM010400 17005KT P6SM OVC010
     FM011700 18005KT P6SM SCT020 SCT200=



000
FTUS46 KSGX 311723
TAFTRM
TAF
KTRM 311723Z 3118/0118 14008KT P6SM SCT200
     FM312300 18012KT P6SM SCT200
     FM010100 33015G25KT P6SM SCT200
     FM010900 33010KT P6SM SCT200=



000
FTUS46 KSGX 311723
TAFPSP
TAF
KPSP 311723Z 3118/0118 12007KT P6SM SCT200
     FM312200 33018G28KT P6SM SCT200
     FM010800 32007KT P6SM SCT200=



000
FTUS46 KSGX 311723
TAFCRQ
TAF
KCRQ 311723Z 3118/0118 VRB05KT P6SM SCT010 SCT200
      TEMPO 3118/3119 6SM BR BKN010
     FM312000 24009KT P6SM FEW012 SCT200
     FM010000 VRB05KT P6SM SCT012 SCT200
     FM010400 17005KT P6SM OVC010
     FM011700 18005KT P6SM SCT020 SCT200=



000
FTUS46 KSGX 311723
TAFTRM
TAF
KTRM 311723Z 3118/0118 14008KT P6SM SCT200
     FM312300 18012KT P6SM SCT200
     FM010100 33015G25KT P6SM SCT200
     FM010900 33010KT P6SM SCT200=



000
FTUS46 KSGX 311723
TAFPSP
TAF
KPSP 311723Z 3118/0118 12007KT P6SM SCT200
     FM312200 33018G28KT P6SM SCT200
     FM010800 32007KT P6SM SCT200=



000
FTUS46 KSGX 311723
TAFSAN
TAF
KSAN 311723Z 3118/0124 22005KT P6SM SCT015 SCT200
     FM312000 27009KT P6SM FEW018 SCT200
     FM010100 22005KT P6SM SCT018 SCT200
     FM010400 17005KT P6SM OVC017
     FM011500 18005KT P6SM BKN020
     FM011700 VRB06KT P6SM SCT022 SCT200
     FM012000 29008KT P6SM FEW022 SCT200=



000
FTUS46 KSGX 311723
TAFSNA
TAF
KSNA 311723Z 3118/0118 VRB05KT P6SM FEW014 SCT200
     FM312000 22008KT P6SM SCT200
     FM010200 VRB04KT P6SM SCT017 SCT200
     FM010500 17005KT P6SM OVC015
     FM011600 VRB05KT P6SM BKN020
     FM011700 VRB05KT P6SM SCT020 SCT200=



000
FTUS46 KSGX 311723
TAFONT
TAF
KONT 311723Z 3118/0124 VRB04KT P6SM SCT200
     FM312000 26012KT P6SM SCT200
     FM010500 25006KT P6SM FEW200
     FM011200 VRB04KT 3SM BR BKN005
     FM011600 VRB05KT 5SM HZ SCT010
     FM012000 26012KT P6SM SCT200=



000
FTUS46 KSGX 311723
TAFSAN
TAF
KSAN 311723Z 3118/0124 22005KT P6SM SCT015 SCT200
     FM312000 27009KT P6SM FEW018 SCT200
     FM010100 22005KT P6SM SCT018 SCT200
     FM010400 17005KT P6SM OVC017
     FM011500 18005KT P6SM BKN020
     FM011700 VRB06KT P6SM SCT022 SCT200
     FM012000 29008KT P6SM FEW022 SCT200=



000
FTUS46 KSGX 311723
TAFSNA
TAF
KSNA 311723Z 3118/0118 VRB05KT P6SM FEW014 SCT200
     FM312000 22008KT P6SM SCT200
     FM010200 VRB04KT P6SM SCT017 SCT200
     FM010500 17005KT P6SM OVC015
     FM011600 VRB05KT P6SM BKN020
     FM011700 VRB05KT P6SM SCT020 SCT200=



000
FTUS46 KSGX 311410 AAA
TAFSAN
TAF AMD
KSAN 311410Z 3114/0118 VRB05KT P6SM OVC010
     FM311730 VRB05KT P6SM SCT015 SCT200
     FM311900 26009KT P6SM FEW015 SCT200
     FM010100 22005KT P6SM SCT015 SCT200
     FM010400 VRB04KT P6SM OVC015
     FM011700 VRB04KT P6SM SCT020=



000
FTUS46 KSGX 311410 AAA
TAFSAN
TAF AMD
KSAN 311410Z 3114/0118 VRB05KT P6SM OVC010
     FM311730 VRB05KT P6SM SCT015 SCT200
     FM311900 26009KT P6SM FEW015 SCT200
     FM010100 22005KT P6SM SCT015 SCT200
     FM010400 VRB04KT P6SM OVC015
     FM011700 VRB04KT P6SM SCT020=



000
FTUS46 KSGX 311346 AAA
TAFSNA
TAF AMD
KSNA 311346Z 3114/0112 VRB04KT P6SM OVC010
     FM311700 VRB05KT P6SM FEW012 SCT200
     FM311900 22008KT P6SM SCT200
     FM010200 VRB04KT P6SM SCT015 SCT200
     FM010400 VRB03KT P6SM OVC012=



000
FTUS46 KSGX 311346 AAA
TAFSNA
TAF AMD
KSNA 311346Z 3114/0112 VRB04KT P6SM OVC010
     FM311700 VRB05KT P6SM FEW012 SCT200
     FM311900 22008KT P6SM SCT200
     FM010200 VRB04KT P6SM SCT015 SCT200
     FM010400 VRB03KT P6SM OVC012=



000
FTUS46 KSGX 311129
TAFPSP
TAF
KPSP 311129Z 3112/0112 VRB06KT P6SM SCT200
     FM312200 33018G28KT P6SM SCT200
     FM010800 32007KT P6SM SCT200=



000
FTUS46 KSGX 311129
TAFONT
TAF
KONT 311129Z 3112/0118 VRB03KT 5SM HZ SCT200
     FM311500 VRB04KT P6SM SCT200
     FM312000 26012KT P6SM SCT200
     FM010400 25006KT P6SM SCT200
     FM010900 VRB04KT 4SM BR BKN007
     FM011530 VRB03KT 6SM HZ SCT010=



000
FTUS46 KSGX 311129
TAFSAN
TAF
KSAN 311129Z 3112/0118 VRB05KT P6SM OVC012
     FM311800 27010KT P6SM SCT015 SCT200
     FM010200 22005KT P6SM SCT015 SCT200
     FM010400 VRB04KT P6SM OVC015
     FM011700 VRB04KT P6SM SCT020=



000
FTUS46 KSGX 311129
TAFTRM
TAF
KTRM 311129Z 3112/0112 VRB06KT P6SM SCT200
     FM311800 14010KT P6SM SCT200
     FM312300 18012G20KT P6SM SCT200
     FM010100 33015G25KT P6SM SCT200
     FM010900 33010KT P6SM SCT200=



000
FTUS46 KSGX 311129
TAFCRQ
TAF
KCRQ 311129Z 3112/0112 VRB04KT 5SM BR OVC004
     FM311700 VRB04KT P6SM SCT008 SCT200
     FM311900 24009KT P6SM SCT010 SCT200
     FM010100 VRB04KT P6SM SCT010 SCT200
     FM010300 VRB03KT P6SM OVC009=



000
FTUS46 KSGX 311129
TAFSNA
TAF
KSNA 311129Z 3112/0112 VRB04KT P6SM OVC006
     FM311600 VRB04KT P6SM BKN010
     FM311800 22009KT P6SM SCT200
     FM010200 VRB04KT P6SM SCT015 SCT200
     FM010400 VRB03KT P6SM OVC012=



000
FTUS46 KSGX 310903 AAA
TAFSNA
TAF AMD
KSNA 310903Z 3109/0106 VRB04KT P6SM OVC010
     FM311700 VRB04KT P6SM SCT014
     FM311900 22009KT P6SM FEW015 SCT200
     FM010200 VRB04KT P6SM SCT015 SCT200
     FM010500 VRB03KT P6SM BKN012=



000
FTUS46 KSGX 310903 AAA
TAFSAN
TAF AMD
KSAN 310903Z 3109/0112 VRB04KT P6SM OVC012
     FM311800 28009KT P6SM SCT015 SCT200
     FM010100 24005KT P6SM SCT017 SCT200
     FM010300 VRB04KT P6SM BKN015=



000
FTUS46 KSGX 310801 AAA
TAFCRQ
TAF AMD
KCRQ 310801Z 3108/0106 VRB04KT P6SM OVC007
     FM311700 VRB03KT P6SM SCT010
     FM311900 24009KT P6SM FEW012 SCT200
     FM010100 VRB04KT P6SM SCT015 SCT200
     FM010300 VRB03KT P6SM BKN012=



000
FTUS46 KSGX 310520
TAFCRQ
TAF
KCRQ 310520Z 3106/0106 VRB04KT P6SM FEW010
     FM310630 VRB03KT 6SM BR BKN010
     FM310800 VRB03KT 5SM BR OVC007
     FM311700 VRB03KT 6SM HZ SCT010
     FM311900 24009KT P6SM FEW012 SCT200
     FM010100 VRB04KT P6SM SCT015 SCT200
     FM010300 VRB03KT P6SM BKN012=



000
FTUS46 KSGX 310520
TAFSNA
TAF
KSNA 310520Z 3106/0106 VRB04KT P6SM SCT012
     FM310630 VRB03KT P6SM BKN011
     FM310900 VRB03KT 5SM BR OVC009
     FM311500 VRB03KT 6SM HZ BKN012
     FM311700 VRB04KT P6SM SCT014
     FM311900 22009KT P6SM FEW015 SCT200
     FM010200 VRB04KT P6SM SCT015 SCT200
     FM010500 VRB03KT P6SM BKN012=



000
FTUS46 KSGX 310520
TAFSAN
TAF
KSAN 310520Z 3106/0112 VRB03KT P6SM SCT015
     FM310630 VRB03KT P6SM OVC012
     FM311700 VRB04KT P6SM SCT015 SCT200
     FM311900 27008KT P6SM FEW015 SCT200
     FM010100 24005KT P6SM SCT017 SCT200
     FM010300 VRB04KT P6SM BKN015=



000
FTUS46 KSGX 310520
TAFTRM
TAF
KTRM 310520Z 3106/0106 33008KT P6SM SKC
     FM310700 VRB05KT P6SM SKC
     FM311800 14010KT P6SM SCT200
     FM010200 32015G25KT P6SM SCT200=



000
FTUS46 KSGX 310520
TAFONT
TAF
KONT 310520Z 3106/0112 VRB05KT P6SM FEW200
      TEMPO 3112/3116 3SM BR HZ SCT003
     FM312000 26011KT P6SM SCT200
     FM010400 VRB05KT P6SM FEW010 SCT200
     FM011000 VRB04KT 5SM BR BKN008=



000
FTUS46 KSGX 310520
TAFSAN
TAF
KSAN 310520Z 3106/0112 VRB03KT P6SM SCT015
     FM310630 VRB03KT P6SM OVC012
     FM311700 VRB04KT P6SM SCT015 SCT200
     FM311900 27008KT P6SM FEW015 SCT200
     FM010100 24005KT P6SM SCT017 SCT200
     FM010300 VRB04KT P6SM BKN015=



000
FTUS46 KSGX 310520
TAFTRM
TAF
KTRM 310520Z 3106/0106 33008KT P6SM SKC
     FM310700 VRB05KT P6SM SKC
     FM311800 14010KT P6SM SCT200
     FM010200 32015G25KT P6SM SCT200=



000
FTUS46 KSGX 310520
TAFSNA
TAF
KSNA 310520Z 3106/0106 VRB04KT P6SM SCT012
     FM310630 VRB03KT P6SM BKN011
     FM310900 VRB03KT 5SM BR OVC009
     FM311500 VRB03KT 6SM HZ BKN012
     FM311700 VRB04KT P6SM SCT014
     FM311900 22009KT P6SM FEW015 SCT200
     FM010200 VRB04KT P6SM SCT015 SCT200
     FM010500 VRB03KT P6SM BKN012=



000
FTUS46 KSGX 310520
TAFPSP
TAF
KPSP 310520Z 3106/0106 VRB05KT P6SM SKC
     FM312000 09010KT P6SM SCT200
     FM312300 33018G28KT P6SM SCT200=



000
FTUS46 KSGX 310520
TAFCRQ
TAF
KCRQ 310520Z 3106/0106 VRB04KT P6SM FEW010
     FM310630 VRB03KT 6SM BR BKN010
     FM310800 VRB03KT 5SM BR OVC007
     FM311700 VRB03KT 6SM HZ SCT010
     FM311900 24009KT P6SM FEW012 SCT200
     FM010100 VRB04KT P6SM SCT015 SCT200
     FM010300 VRB03KT P6SM BKN012=



000
FTUS46 KSGX 310520
TAFPSP
TAF
KPSP 310520Z 3106/0106 VRB05KT P6SM SKC
     FM312000 09010KT P6SM SCT200
     FM312300 33018G28KT P6SM SCT200=



000
FTUS46 KSGX 310520
TAFONT
TAF
KONT 310520Z 3106/0112 VRB05KT P6SM FEW200
      TEMPO 3112/3116 3SM BR HZ SCT003
     FM312000 26011KT P6SM SCT200
     FM010400 VRB05KT P6SM FEW010 SCT200
     FM011000 VRB04KT 5SM BR BKN008=



000
FTUS46 KSGX 310258 AAA
TAFSAN
TAF AMD
KSAN 310258Z 3103/0106 VRB05KT P6SM SCT015
     FM310500 VRB04KT P6SM OVC010
     FM311700 VRB04KT P6SM SCT012 SCT200
     FM311900 27008KT P6SM FEW015 SCT200
     FM010100 24005KT P6SM SCT015 SCT200=



000
FTUS46 KSGX 310258 AAA
TAFSAN
TAF AMD
KSAN 310258Z 3103/0106 VRB05KT P6SM SCT015
     FM310500 VRB04KT P6SM OVC010
     FM311700 VRB04KT P6SM SCT012 SCT200
     FM311900 27008KT P6SM FEW015 SCT200
     FM010100 24005KT P6SM SCT015 SCT200=



000
FTUS46 KSGX 302320
TAFONT
TAF
KONT 302320Z 3100/0106 26012KT P6SM SKC
     FM310500 VRB05KT P6SM SKC
      TEMPO 3112/3116 3SM BR HZ SCT003
     FM312000 26011KT P6SM SCT200
     FM010500 VRB05KT P6SM SCT200=



000
FTUS46 KSGX 302320
TAFONT
TAF
KONT 302320Z 3100/0106 26012KT P6SM SKC
     FM310500 VRB05KT P6SM SKC
      TEMPO 3112/3116 3SM BR HZ SCT003
     FM312000 26011KT P6SM SCT200
     FM010500 VRB05KT P6SM SCT200=



000
FTUS46 KSGX 302320
TAFCRQ
TAF
KCRQ 302320Z 3100/3124 VRB04KT P6SM FEW010
     FM310500 VRB03KT 6SM BR BKN008
     FM311000 VRB03KT 2SM BR VCFG OVC004
      TEMPO 3110/3113 1/2SM FG VV002
     FM311600 VRB03KT 3SM BR BKN007
     FM311700 VRB03KT 6SM HZ SCT010
     FM311900 24009KT P6SM FEW010 SCT200=



000
FTUS46 KSGX 302320
TAFSNA
TAF
KSNA 302320Z 3100/3124 23009KT P6SM FEW015
     FM310200 VRB05KT P6SM SCT012
     FM310600 VRB03KT P6SM BKN010
     FM311000 VRB03KT 5SM BR OVC008
     FM311600 VRB03KT 6SM BR BKN011
     FM311700 VRB03KT P6SM SCT014
     FM311900 22009KT P6SM FEW015 SCT200=



000
FTUS46 KSGX 302320
TAFSAN
TAF
KSAN 302320Z 3100/0106 28007KT P6SM FEW015
     FM310100 VRB05KT P6SM SCT012
     FM310400 VRB04KT P6SM OVC010
     FM311700 VRB04KT P6SM SCT012 SCT200
     FM311900 27008KT P6SM FEW015 SCT200
     FM010100 24005KT P6SM SCT015 SCT200=



000
FTUS46 KSGX 302320
TAFPSP
TAF
KPSP 302320Z 3100/3124 VRB05KT P6SM SKC
     FM310100 32011KT P6SM SKC
     FM310500 VRB05KT P6SM SKC
     FM311800 12008KT P6SM SCT200=



000
FTUS46 KSGX 302320
TAFSAN
TAF
KSAN 302320Z 3100/0106 28007KT P6SM FEW015
     FM310100 VRB05KT P6SM SCT012
     FM310400 VRB04KT P6SM OVC010
     FM311700 VRB04KT P6SM SCT012 SCT200
     FM311900 27008KT P6SM FEW015 SCT200
     FM010100 24005KT P6SM SCT015 SCT200=



000
FTUS46 KSGX 302320
TAFTRM
TAF
KTRM 302320Z 3100/3124 14010KT P6SM SKC
     FM310200 33008KT P6SM SKC
     FM310700 VRB05KT P6SM SKC
     FM311800 14010KT P6SM SCT200=



000
FTUS46 KSGX 302320
TAFTRM
TAF
KTRM 302320Z 3100/3124 14010KT P6SM SKC
     FM310200 33008KT P6SM SKC
     FM310700 VRB05KT P6SM SKC
     FM311800 14010KT P6SM SCT200=



000
FTUS46 KSGX 302320
TAFCRQ
TAF
KCRQ 302320Z 3100/3124 VRB04KT P6SM FEW010
     FM310500 VRB03KT 6SM BR BKN008
     FM311000 VRB03KT 2SM BR VCFG OVC004
      TEMPO 3110/3113 1/2SM FG VV002
     FM311600 VRB03KT 3SM BR BKN007
     FM311700 VRB03KT 6SM HZ SCT010
     FM311900 24009KT P6SM FEW010 SCT200=



000
FTUS46 KSGX 302320
TAFPSP
TAF
KPSP 302320Z 3100/3124 VRB05KT P6SM SKC
     FM310100 32011KT P6SM SKC
     FM310500 VRB05KT P6SM SKC
     FM311800 12008KT P6SM SCT200=



000
FTUS46 KSGX 302001 AAA
TAFSAN
TAF AMD
KSAN 302001Z 3020/3124 28007KT P6SM FEW015
     FM310100 VRB05KT P6SM SCT012
     FM310400 VRB04KT P6SM OVC010
     FM311700 VRB04KT P6SM SCT012 SCT200
     FM311900 27007KT P6SM FEW012 SCT200=



000
FTUS46 KSGX 302001 AAA
TAFSAN
TAF AMD
KSAN 302001Z 3020/3124 28007KT P6SM FEW015
     FM310100 VRB05KT P6SM SCT012
     FM310400 VRB04KT P6SM OVC010
     FM311700 VRB04KT P6SM SCT012 SCT200
     FM311900 27007KT P6SM FEW012 SCT200=



000
FTUS46 KSGX 301733
TAFSNA
TAF
KSNA 301733Z 3018/3118 VRB05KT P6SM FEW013
     FM302100 22009KT P6SM FEW013
     FM310100 21005KT P6SM SCT012
     FM310600 VRB03KT P6SM BKN010
     FM311000 VRB03KT 5SM BR OVC008
     FM311600 VRB03KT 6SM BR BKN011
     FM311700 VRB03KT P6SM SCT014=



000
FTUS46 KSGX 301733
TAFSAN
TAF
KSAN 301733Z 3018/3124 28007KT P6SM FEW014
     FM310100 VRB05KT P6SM SCT012
     FM310400 VRB04KT P6SM OVC010
     FM311700 VRB04KT P6SM SCT012 SCT200
     FM311900 27007KT P6SM FEW012 SCT200=



000
FTUS46 KSGX 301733
TAFTRM
TAF
KTRM 301733Z 3018/3118 VRB05KT P6SM SKC
     FM302000 15009KT P6SM SKC
     FM310200 33006KT P6SM FEW250=



000
FTUS46 KSGX 301733
TAFPSP
TAF
KPSP 301733Z 3018/3118 VRB05KT P6SM SKC
     FM302100 12009KT P6SM SKC
     FM310100 32010KT P6SM FEW250
     FM310400 32006KT P6SM SCT250=



000
FTUS46 KSGX 301733
TAFONT
TAF
KONT 301733Z 3018/3124 VRB04KT P6SM SKC
     FM302100 26011KT P6SM SKC
     FM310500 VRB05KT P6SM FEW250
      TEMPO 3112/3116 3SM BR SCT003
     FM311600 VRB03KT P6SM SCT250
     FM312100 26011KT P6SM SCT250=



000
FTUS46 KSGX 301733
TAFCRQ
TAF
KCRQ 301733Z 3018/3118 VRB05KT P6SM FEW005
      TEMPO 3018/3019 5SM BR BKN004
     FM302100 25009KT P6SM SKC
     FM310000 VRB04KT P6SM SCT006
     FM310300 VRB03KT 6SM BR BKN008
     FM311000 VRB03KT 2SM BR VCFG OVC004
     FM311600 VRB03KT 3SM BR BKN007
     FM311700 VRB03KT P6SM SCT010=



000
FTUS46 KSGX 301733
TAFONT
TAF
KONT 301733Z 3018/3124 VRB04KT P6SM SKC
     FM302100 26011KT P6SM SKC
     FM310500 VRB05KT P6SM FEW250
      TEMPO 3112/3116 3SM BR SCT003
     FM311600 VRB03KT P6SM SCT250
     FM312100 26011KT P6SM SCT250=



000
FTUS46 KSGX 301733
TAFSAN
TAF
KSAN 301733Z 3018/3124 28007KT P6SM FEW014
     FM310100 VRB05KT P6SM SCT012
     FM310400 VRB04KT P6SM OVC010
     FM311700 VRB04KT P6SM SCT012 SCT200
     FM311900 27007KT P6SM FEW012 SCT200=



000
FTUS46 KSGX 301733
TAFSNA
TAF
KSNA 301733Z 3018/3118 VRB05KT P6SM FEW013
     FM302100 22009KT P6SM FEW013
     FM310100 21005KT P6SM SCT012
     FM310600 VRB03KT P6SM BKN010
     FM311000 VRB03KT 5SM BR OVC008
     FM311600 VRB03KT 6SM BR BKN011
     FM311700 VRB03KT P6SM SCT014=



000
FTUS46 KSGX 301733
TAFTRM
TAF
KTRM 301733Z 3018/3118 VRB05KT P6SM SKC
     FM302000 15009KT P6SM SKC
     FM310200 33006KT P6SM FEW250=



000
FTUS46 KSGX 301733
TAFPSP
TAF
KPSP 301733Z 3018/3118 VRB05KT P6SM SKC
     FM302100 12009KT P6SM SKC
     FM310100 32010KT P6SM FEW250
     FM310400 32006KT P6SM SCT250=



000
FTUS46 KSGX 301733
TAFCRQ
TAF
KCRQ 301733Z 3018/3118 VRB05KT P6SM FEW005
      TEMPO 3018/3019 5SM BR BKN004
     FM302100 25009KT P6SM SKC
     FM310000 VRB04KT P6SM SCT006
     FM310300 VRB03KT 6SM BR BKN008
     FM311000 VRB03KT 2SM BR VCFG OVC004
     FM311600 VRB03KT 3SM BR BKN007
     FM311700 VRB03KT P6SM SCT010=



000
FTUS46 KSGX 301540 AAB
TAFCRQ
TAF AMD
KCRQ 301540Z 3016/3112 VRB03KT 1/4SM FG VV002
     FM301630 VRB03KT 2SM BR BKN003
     FM301730 VRB03KT P6SM SCT009
     FM302000 25009KT P6SM SKC
     FM310200 VRB04KT P6SM SCT006
     FM310500 VRB03KT 5SM BR OVC005
     FM311000 VRB03KT P6SM OVC009=



000
FTUS46 KSGX 301538 AAB
TAFSNA
TAF AMD
KSNA 301538Z 3016/3112 VRB03KT 6SM BR BKN011
     FM301800 VRB03KT P6SM SCT012
     FM301900 22009KT P6SM SKC
     FM310300 21005KT P6SM SCT008
     FM310600 VRB03KT P6SM OVC007=



000
FTUS46 KSGX 301431 AAA
TAFSAN
TAF AMD
KSAN 301431Z 3015/3118 VRB03KT P6SM OVC008
     FM301600 VRB03KT P6SM BKN010
     FM301700 VRB03KT P6SM SCT012
     FM301900 28009KT P6SM SKC
     FM310100 VRB05KT P6SM SCT009
     FM310500 VRB04KT P6SM OVC008
     FM311700 VRB04KT P6SM SCT012=



000
FTUS46 KSGX 301431 AAA
TAFSAN
TAF AMD
KSAN 301431Z 3015/3118 VRB03KT P6SM OVC008
     FM301600 VRB03KT P6SM BKN010
     FM301700 VRB03KT P6SM SCT012
     FM301900 28009KT P6SM SKC
     FM310100 VRB05KT P6SM SCT009
     FM310500 VRB04KT P6SM OVC008
     FM311700 VRB04KT P6SM SCT012=



000
FTUS46 KSGX 301322 AAA
TAFSNA
TAF AMD
KSNA 301322Z 3013/3112 VRB03KT 5SM BR OVC005
     FM301700 VRB03KT P6SM SCT006
     FM301900 22009KT P6SM SKC
     FM310300 21005KT P6SM SCT008
     FM310600 VRB03KT P6SM OVC007=



000
FTUS46 KSGX 301322 AAA
TAFSNA
TAF AMD
KSNA 301322Z 3013/3112 VRB03KT 5SM BR OVC005
     FM301700 VRB03KT P6SM SCT006
     FM301900 22009KT P6SM SKC
     FM310300 21005KT P6SM SCT008
     FM310600 VRB03KT P6SM OVC007=



000
FTUS46 KSGX 301305 AAA
TAFCRQ
TAF AMD
KCRQ 301305Z 3013/3112 VRB03KT 1/4SM FG VV002
     FM301500 VRB03KT 2SM BR BKN003
     FM301600 VRB03KT P6SM SCT006
     FM302000 25009KT P6SM SKC
     FM310200 VRB04KT P6SM SCT006
     FM310500 VRB03KT 5SM BR OVC005
     FM311000 VRB03KT P6SM OVC009=



000
FTUS46 KSGX 301120
TAFCRQ
TAF
KCRQ 301120Z 3012/3112 VRB03KT 1/2SM FG VV001
     FM301400 VRB03KT 2SM BR BKN003
     FM301530 VRB03KT P6SM SCT006
     FM302000 25009KT P6SM SKC
     FM310200 VRB04KT P6SM SCT006
     FM310500 VRB03KT 5SM BR OVC005
     FM311000 VRB03KT P6SM OVC009=



000
FTUS46 KSGX 301120
TAFSNA
TAF
KSNA 301120Z 3012/3112 VRB03KT 3SM BR OVC003
     FM301630 VRB03KT P6SM SCT006
     FM301900 22009KT P6SM SKC
     FM310300 21005KT P6SM SCT008
     FM310600 VRB03KT P6SM OVC007=



000
FTUS46 KSGX 301120
TAFCRQ
TAF
KCRQ 301120Z 3012/3112 VRB03KT 1/2SM FG VV001
     FM301400 VRB03KT 2SM BR BKN003
     FM301530 VRB03KT P6SM SCT006
     FM302000 25009KT P6SM SKC
     FM310200 VRB04KT P6SM SCT006
     FM310500 VRB03KT 5SM BR OVC005
     FM311000 VRB03KT P6SM OVC009=



000
FTUS46 KSGX 301120
TAFPSP
TAF
KPSP 301120Z 3012/3112 VRB05KT P6SM SKC
     FM302000 12009KT P6SM SKC
     FM310200 32010KT P6SM SKC
     FM310700 VRB05KT P6SM SKC=



000
FTUS46 KSGX 301120
TAFONT
TAF
KONT 301120Z 3012/3118 VRB04KT P6SM SKC
     FM302100 26011KT P6SM SKC
     FM310400 25005KT P6SM SKC
     FM311100 VRB05KT 3SM BR SCT004
      TEMPO 3112/3116 1SM BR BKN003
     FM311600 VRB03KT P6SM SKC=



000
FTUS46 KSGX 301120
TAFSAN
TAF
KSAN 301120Z 3012/3118 VRB03KT P6SM OVC008
     FM301530 VRB03KT P6SM SCT010
     FM301900 28009KT P6SM SKC
     FM310200 VRB05KT P6SM SCT009
     FM310500 VRB04KT P6SM OVC008
     FM311000 VRB03KT P6SM OVC012
     FM311600 VRB04KT P6SM SCT015=



000
FTUS46 KSGX 301120
TAFTRM
TAF
KTRM 301120Z 3012/3112 VRB05KT P6SM SKC
     FM302000 15010KT P6SM SKC
     FM310300 33009KT P6SM SKC=



000
FTUS46 KSGX 301120
TAFONT
TAF
KONT 301120Z 3012/3118 VRB04KT P6SM SKC
     FM302100 26011KT P6SM SKC
     FM310400 25005KT P6SM SKC
     FM311100 VRB05KT 3SM BR SCT004
      TEMPO 3112/3116 1SM BR BKN003
     FM311600 VRB03KT P6SM SKC=



000
FTUS46 KSGX 301120
TAFSAN
TAF
KSAN 301120Z 3012/3118 VRB03KT P6SM OVC008
     FM301530 VRB03KT P6SM SCT010
     FM301900 28009KT P6SM SKC
     FM310200 VRB05KT P6SM SCT009
     FM310500 VRB04KT P6SM OVC008
     FM311000 VRB03KT P6SM OVC012
     FM311600 VRB04KT P6SM SCT015=



000
FTUS46 KSGX 301120
TAFTRM
TAF
KTRM 301120Z 3012/3112 VRB05KT P6SM SKC
     FM302000 15010KT P6SM SKC
     FM310300 33009KT P6SM SKC=



000
FTUS46 KSGX 301120
TAFPSP
TAF
KPSP 301120Z 3012/3112 VRB05KT P6SM SKC
     FM302000 12009KT P6SM SKC
     FM310200 32010KT P6SM SKC
     FM310700 VRB05KT P6SM SKC=



000
FTUS46 KSGX 301120
TAFSNA
TAF
KSNA 301120Z 3012/3112 VRB03KT 3SM BR OVC003
     FM301630 VRB03KT P6SM SCT006
     FM301900 22009KT P6SM SKC
     FM310300 21005KT P6SM SCT008
     FM310600 VRB03KT P6SM OVC007=



000
FTUS46 KSGX 300915 AAB
TAFSAN
TAF AMD
KSAN 300915Z 3009/3112 VRB04KT P6SM OVC009
     FM301530 VRB03KT P6SM SCT010
     FM301900 28009KT P6SM SKC
     FM310200 VRB05KT P6SM SCT012
     FM310500 VRB05KT P6SM BKN012=



000
FTUS46 KSGX 300915 AAB
TAFSAN
TAF AMD
KSAN 300915Z 3009/3112 VRB04KT P6SM OVC009
     FM301530 VRB03KT P6SM SCT010
     FM301900 28009KT P6SM SKC
     FM310200 VRB05KT P6SM SCT012
     FM310500 VRB05KT P6SM BKN012=



000
FTUS46 KSGX 300914 AAA
TAFCRQ
TAF AMD
KCRQ 300914Z 3009/3106 VRB04KT 3/4SM BR OVC002
     FM301100 VRB03KT 3SM BR OVC004
     FM301500 VRB03KT P6SM SCT007
     FM302000 25009KT P6SM SKC
     FM310200 VRB05KT P6SM FEW010=



000
FTUS46 KSGX 300914 AAA
TAFSNA
TAF AMD
KSNA 300914Z 3009/3106 VRB03KT P6SM OVC005
     FM301500 VRB03KT P6SM SCT008
     FM301900 22009KT P6SM SKC
     FM310300 VRB05KT P6SM FEW010=



000
FTUS46 KSGX 300914 AAA
TAFSNA
TAF AMD
KSNA 300914Z 3009/3106 VRB03KT P6SM OVC005
     FM301500 VRB03KT P6SM SCT008
     FM301900 22009KT P6SM SKC
     FM310300 VRB05KT P6SM FEW010=



000
FTUS46 KSGX 300559 AAA
TAFSAN
TAF AMD
KSAN 300559Z 3006/3112 VRB04KT P6SM SCT010
     FM300800 VRB03KT P6SM OVC010
     FM301530 VRB03KT P6SM FEW010 SCT200
     FM301900 28009KT P6SM SCT200
     FM310200 VRB05KT P6SM FEW010
     FM310500 VRB05KT P6SM BKN010=



000
FTUS46 KSGX 300559 AAA
TAFSAN
TAF AMD
KSAN 300559Z 3006/3112 VRB04KT P6SM SCT010
     FM300800 VRB03KT P6SM OVC010
     FM301530 VRB03KT P6SM FEW010 SCT200
     FM301900 28009KT P6SM SCT200
     FM310200 VRB05KT P6SM FEW010
     FM310500 VRB05KT P6SM BKN010=



000
FTUS46 KSGX 300520
TAFCRQ
TAF
KCRQ 300520Z 3006/3106 VRB04KT P6SM FEW009
     FM300800 VRB03KT 6SM BR BKN008
     FM301500 VRB03KT P6SM SCT010
     FM302000 25009KT P6SM SKC
     FM310200 VRB05KT P6SM FEW010=



000
FTUS46 KSGX 300520
TAFONT
TAF
KONT 300520Z 3006/3112 VRB05KT P6SM FEW250
     FM302100 26011KT P6SM SCT250
     FM310400 VRB05KT P6SM SKC
     FM311100 VRB05KT 3SM BR SCT008=



000
FTUS46 KSGX 300520
TAFTRM
TAF
KTRM 300520Z 3006/3106 33009KT P6SM SKC
     FM301000 VRB05KT P6SM SKC
     FM302000 12010KT P6SM SKC
     FM310400 33011KT P6SM SKC=



000
FTUS46 KSGX 300520
TAFCRQ
TAF
KCRQ 300520Z 3006/3106 VRB04KT P6SM FEW009
     FM300800 VRB03KT 6SM BR BKN008
     FM301500 VRB03KT P6SM SCT010
     FM302000 25009KT P6SM SKC
     FM310200 VRB05KT P6SM FEW010=



000
FTUS46 KSGX 300520
TAFSNA
TAF
KSNA 300520Z 3006/3106 VRB03KT P6SM BKN010
     FM301500 VRB03KT P6SM FEW015
     FM301900 22009KT P6SM SKC
     FM310300 VRB05KT P6SM FEW010=



000
FTUS46 KSGX 300520
TAFONT
TAF
KONT 300520Z 3006/3112 VRB05KT P6SM FEW250
     FM302100 26011KT P6SM SCT250
     FM310400 VRB05KT P6SM SKC
     FM311100 VRB05KT 3SM BR SCT008=



000
FTUS46 KSGX 300520
TAFTRM
TAF
KTRM 300520Z 3006/3106 33009KT P6SM SKC
     FM301000 VRB05KT P6SM SKC
     FM302000 12010KT P6SM SKC
     FM310400 33011KT P6SM SKC=



000
FTUS46 KSGX 300520
TAFPSP
TAF
KPSP 300520Z 3006/3106 VRB05KT P6SM FEW250
     FM302000 13010KT P6SM SKC
     FM310200 32011KT P6SM SKC=



000
FTUS46 KSGX 300520
TAFSAN
TAF
KSAN 300520Z 3006/3112 VRB04KT P6SM BKN010
     FM300900 VRB03KT P6SM OVC009
     FM301530 VRB03KT P6SM FEW010 SCT200
     FM301900 28009KT P6SM SCT200
     FM310200 VRB05KT P6SM FEW010
     FM310500 VRB05KT P6SM BKN010=



000
FTUS46 KSGX 300520
TAFPSP
TAF
KPSP 300520Z 3006/3106 VRB05KT P6SM FEW250
     FM302000 13010KT P6SM SKC
     FM310200 32011KT P6SM SKC=



000
FTUS46 KSGX 300520
TAFSAN
TAF
KSAN 300520Z 3006/3112 VRB04KT P6SM BKN010
     FM300900 VRB03KT P6SM OVC009
     FM301530 VRB03KT P6SM FEW010 SCT200
     FM301900 28009KT P6SM SCT200
     FM310200 VRB05KT P6SM FEW010
     FM310500 VRB05KT P6SM BKN010=



000
FTUS46 KSGX 300305 AAA
TAFSAN
TAF AMD
KSAN 300305Z 3003/3106 VRB04KT P6SM FEW010
     FM300800 VRB03KT P6SM OVC009
     FM301530 VRB03KT P6SM FEW010 SCT200
     FM301900 28009KT P6SM SCT200
     FM310200 VRB05KT P6SM SKC=



000
FTUS46 KSGX 292339
TAFSAN
TAF
KSAN 292339Z 3000/3106 30008KT P6SM FEW010 SCT200
     FM300200 VRB04KT P6SM FEW007
     FM300800 VRB03KT P6SM OVC009
     FM301530 VRB03KT P6SM FEW010 SCT200
     FM301900 28009KT P6SM SCT200
     FM310200 VRB05KT P6SM SKC=



000
FTUS46 KSGX 292339
TAFPSP
TAF
KPSP 292339Z 3000/3024 11010KT P6SM SCT250
     FM300200 32010G18KT P6SM FEW250
     FM300600 VRB05KT P6SM FEW250
     FM302000 13010KT P6SM SKC=



000
FTUS46 KSGX 292339
TAFONT
TAF
KONT 292339Z 3000/3106 26011KT P6SM SCT250
     FM300400 VRB04KT P6SM FEW250
     FM302100 26011KT P6SM SCT250
     FM310400 VRB05KT P6SM SKC=



000
FTUS46 KSGX 292339
TAFCRQ
TAF
KCRQ 292339Z 3000/3024 25009KT P6SM SKC
     FM300200 VRB04KT P6SM FEW006
      TEMPO 3003/3005 3SM BR BKN004
     FM300800 VRB03KT 6SM BR BKN006
     FM301500 VRB03KT P6SM SCT009
     FM302000 25009KT P6SM SKC=



000
FTUS46 KSGX 292339
TAFTRM
TAF
KTRM 292339Z 3000/3024 12010KT P6SM SCT250
     FM300500 33009KT P6SM SKC
     FM301000 VRB05KT P6SM SKC
     FM302000 12010KT P6SM SKC=



000
FTUS46 KSGX 292339
TAFSNA
TAF
KSNA 292339Z 3000/3024 22009KT P6SM FEW250
     FM300200 VRB04KT P6SM FEW006
     FM300600 VRB03KT P6SM BKN008
     FM301500 VRB03KT P6SM FEW010
     FM301900 22009KT P6SM SKC=



000
FTUS46 KSGX 292339
TAFCRQ
TAF
KCRQ 292339Z 3000/3024 25009KT P6SM SKC
     FM300200 VRB04KT P6SM FEW006
      TEMPO 3003/3005 3SM BR BKN004
     FM300800 VRB03KT 6SM BR BKN006
     FM301500 VRB03KT P6SM SCT009
     FM302000 25009KT P6SM SKC=



000
FTUS46 KSGX 292339
TAFSAN
TAF
KSAN 292339Z 3000/3106 30008KT P6SM FEW010 SCT200
     FM300200 VRB04KT P6SM FEW007
     FM300800 VRB03KT P6SM OVC009
     FM301530 VRB03KT P6SM FEW010 SCT200
     FM301900 28009KT P6SM SCT200
     FM310200 VRB05KT P6SM SKC=



000
FTUS46 KSGX 292339
TAFONT
TAF
KONT 292339Z 3000/3106 26011KT P6SM SCT250
     FM300400 VRB04KT P6SM FEW250
     FM302100 26011KT P6SM SCT250
     FM310400 VRB05KT P6SM SKC=



000
FTUS46 KSGX 292339
TAFPSP
TAF
KPSP 292339Z 3000/3024 11010KT P6SM SCT250
     FM300200 32010G18KT P6SM FEW250
     FM300600 VRB05KT P6SM FEW250
     FM302000 13010KT P6SM SKC=



000
FTUS46 KSGX 292339
TAFTRM
TAF
KTRM 292339Z 3000/3024 12010KT P6SM SCT250
     FM300500 33009KT P6SM SKC
     FM301000 VRB05KT P6SM SKC
     FM302000 12010KT P6SM SKC=



000
FTUS46 KSGX 292339
TAFSNA
TAF
KSNA 292339Z 3000/3024 22009KT P6SM FEW250
     FM300200 VRB04KT P6SM FEW006
     FM300600 VRB03KT P6SM BKN008
     FM301500 VRB03KT P6SM FEW010
     FM301900 22009KT P6SM SKC=



000
FTUS46 KSGX 292004 AAA
TAFSAN
TAF AMD
KSAN 292004Z 2920/3024 27008KT P6SM SCT200
     FM300200 VRB04KT P6SM FEW007
     FM300600 VRB03KT P6SM OVC007
     FM301530 VRB03KT P6SM FEW010 SCT200
     FM301900 26008KT P6SM SCT200=



000
FTUS46 KSGX 292004 AAA
TAFSAN
TAF AMD
KSAN 292004Z 2920/3024 27008KT P6SM SCT200
     FM300200 VRB04KT P6SM FEW007
     FM300600 VRB03KT P6SM OVC007
     FM301530 VRB03KT P6SM FEW010 SCT200
     FM301900 26008KT P6SM SCT200=



000
FTUS46 KSGX 291722
TAFCRQ
TAF
KCRQ 291722Z 2918/3018 VRB03KT P6SM SCT200
     FM291930 25009KT P6SM SKC
     FM300200 VRB04KT P6SM FEW005
      TEMPO 3003/3005 BKN004
     FM300600 VRB03KT P6SM BKN004
     FM301500 VRB03KT 3SM BR SCT005=



000
FTUS46 KSGX 291722
TAFCRQ
TAF
KCRQ 291722Z 2918/3018 VRB03KT P6SM SCT200
     FM291930 25009KT P6SM SKC
     FM300200 VRB04KT P6SM FEW005
      TEMPO 3003/3005 BKN004
     FM300600 VRB03KT P6SM BKN004
     FM301500 VRB03KT 3SM BR SCT005=



000
FTUS46 KSGX 291722
TAFTRM
TAF
KTRM 291722Z 2918/3018 VRB05KT P6SM SCT250
     FM300500 33009KT P6SM SKC
     FM301000 VRB05KT P6SM SKC=



000
FTUS46 KSGX 291722
TAFSNA
TAF
KSNA 291722Z 2918/3018 VRB04KT P6SM FEW012 SCT250
     FM292000 22009KT P6SM FEW250
     FM300200 VRB04KT P6SM FEW006
     FM300600 VRB03KT P6SM BKN007
     FM301500 VRB03KT P6SM FEW010=



000
FTUS46 KSGX 291722
TAFPSP
TAF
KPSP 291722Z 2918/3018 VRB05KT P6SM SCT250
     FM300200 32010G18KT P6SM FEW250
     FM300600 VRB05KT P6SM FEW250=



000
FTUS46 KSGX 291722
TAFSAN
TAF
KSAN 291722Z 2918/3024 VRB03KT P6SM FEW010 BKN200
     FM291900 27009KT P6SM SCT200
     FM300200 VRB04KT P6SM FEW007
     FM300600 VRB03KT P6SM OVC007
     FM301530 VRB03KT P6SM FEW010 SCT200
     FM301900 26008KT P6SM SCT200=



000
FTUS46 KSGX 291722
TAFONT
TAF
KONT 291722Z 2918/3024 VRB03KT P6SM BKN250
     FM292100 25011KT P6SM SCT250
     FM300400 VRB04KT P6SM FEW250
     FM302100 25010KT P6SM SCT250=



000
FTUS46 KSGX 291722
TAFPSP
TAF
KPSP 291722Z 2918/3018 VRB05KT P6SM SCT250
     FM300200 32010G18KT P6SM FEW250
     FM300600 VRB05KT P6SM FEW250=



000
FTUS46 KSGX 291722
TAFONT
TAF
KONT 291722Z 2918/3024 VRB03KT P6SM BKN250
     FM292100 25011KT P6SM SCT250
     FM300400 VRB04KT P6SM FEW250
     FM302100 25010KT P6SM SCT250=



000
FTUS46 KSGX 291722
TAFTRM
TAF
KTRM 291722Z 2918/3018 VRB05KT P6SM SCT250
     FM300500 33009KT P6SM SKC
     FM301000 VRB05KT P6SM SKC=



000
FTUS46 KSGX 291722
TAFSAN
TAF
KSAN 291722Z 2918/3024 VRB03KT P6SM FEW010 BKN200
     FM291900 27009KT P6SM SCT200
     FM300200 VRB04KT P6SM FEW007
     FM300600 VRB03KT P6SM OVC007
     FM301530 VRB03KT P6SM FEW010 SCT200
     FM301900 26008KT P6SM SCT200=



000
FTUS46 KSGX 291722
TAFSNA
TAF
KSNA 291722Z 2918/3018 VRB04KT P6SM FEW012 SCT250
     FM292000 22009KT P6SM FEW250
     FM300200 VRB04KT P6SM FEW006
     FM300600 VRB03KT P6SM BKN007
     FM301500 VRB03KT P6SM FEW010=



000
FTUS46 KSGX 291410 AAA
TAFCRQ
TAF AMD
KCRQ 291410Z 2914/3012 VRB03KT 6SM BR BKN005
     FM291530 VRB03KT 3SM BR SCT002
     FM291600 VRB03KT P6SM SKC
     FM291930 25009KT P6SM SKC
     FM300400 VRB05KT P6SM BKN004=



000
FTUS46 KSGX 291410 AAA
TAFSNA
TAF AMD
KSNA 291410Z 2914/3012 VRB03KT P6SM BKN010
     FM291530 VRB04KT P6SM FEW012
     FM292000 22010KT P6SM SKC
     FM300200 VRB05KT P6SM FEW006
     FM300600 VRB05KT 6SM BR BKN007=



000
FTUS46 KSGX 291409 AAB
TAFSAN
TAF AMD
KSAN 291409Z 2914/3018 VRB04KT P6SM OVC010
     FM291530 VRB03KT P6SM FEW006
     FM291900 27009KT P6SM SKC
     FM300200 VRB05KT P6SM FEW007
     FM300600 VRB05KT 6SM BR BKN007=



000
FTUS46 KSGX 291409 AAB
TAFSAN
TAF AMD
KSAN 291409Z 2914/3018 VRB04KT P6SM OVC010
     FM291530 VRB03KT P6SM FEW006
     FM291900 27009KT P6SM SKC
     FM300200 VRB05KT P6SM FEW007
     FM300600 VRB05KT 6SM BR BKN007=



000
FTUS46 KSGX 291235 AAA
TAFSAN
TAF AMD
KSAN 291235Z 2913/3018 VRB05KT 3SM BR OVC008
     FM291530 VRB03KT P6SM FEW006
     FM291900 28009KT P6SM SKC
     FM300200 VRB05KT P6SM FEW007
     FM300600 VRB05KT 6SM BR BKN007=



000
FTUS46 KSGX 291235 AAA
TAFSAN
TAF AMD
KSAN 291235Z 2913/3018 VRB05KT 3SM BR OVC008
     FM291530 VRB03KT P6SM FEW006
     FM291900 28009KT P6SM SKC
     FM300200 VRB05KT P6SM FEW007
     FM300600 VRB05KT 6SM BR BKN007=



000
FTUS46 KSGX 291134
TAFSAN
TAF
KSAN 291134Z 2912/3018 VRB05KT 3SM BR OVC006
     FM291530 VRB03KT P6SM FEW006
     FM291900 28009KT P6SM SKC
     FM300200 VRB05KT P6SM FEW007
     FM300600 VRB05KT 6SM BR BKN007=



000
FTUS46 KSGX 291134
TAFPSP
TAF
KPSP 291134Z 2912/3012 VRB05KT P6SM SCT250
     FM300100 32012KT P6SM SKC
     FM300700 VRB05KT P6SM SKC=



000
FTUS46 KSGX 291134
TAFTRM
TAF
KTRM 291134Z 2912/3012 VRB06KT P6SM SKC
     FM300500 33008KT P6SM SKC
     FM301000 VRB05KT P6SM SKC=



000
FTUS46 KSGX 291134
TAFSNA
TAF
KSNA 291134Z 2912/3012 VRB03KT 4SM BR BKN006
     FM291530 VRB04KT P6SM FEW006
     FM292000 22010KT P6SM SKC
     FM300200 VRB05KT P6SM FEW006
     FM300600 VRB05KT 6SM BR BKN007=



000
FTUS46 KSGX 291134
TAFCRQ
TAF
KCRQ 291134Z 2912/3012 VRB06KT 2SM BR BKN002
     FM291530 VRB03KT 3SM BR SCT002
     FM291600 VRB03KT P6SM SKC
     FM291930 25009KT P6SM SKC
     FM300400 VRB05KT P6SM BKN004=



000
FTUS46 KSGX 291134
TAFTRM
TAF
KTRM 291134Z 2912/3012 VRB06KT P6SM SKC
     FM300500 33008KT P6SM SKC
     FM301000 VRB05KT P6SM SKC=



000
FTUS46 KSGX 291134
TAFSAN
TAF
KSAN 291134Z 2912/3018 VRB05KT 3SM BR OVC006
     FM291530 VRB03KT P6SM FEW006
     FM291900 28009KT P6SM SKC
     FM300200 VRB05KT P6SM FEW007
     FM300600 VRB05KT 6SM BR BKN007=



000
FTUS46 KSGX 291134
TAFONT
TAF
KONT 291134Z 2912/3018 VRB04KT P6SM SCT250
     FM292100 25011KT P6SM SCT250
     FM300400 VRB05KT P6SM SKC=



000
FTUS46 KSGX 291134
TAFSNA
TAF
KSNA 291134Z 2912/3012 VRB03KT 4SM BR BKN006
     FM291530 VRB04KT P6SM FEW006
     FM292000 22010KT P6SM SKC
     FM300200 VRB05KT P6SM FEW006
     FM300600 VRB05KT 6SM BR BKN007=



000
FTUS46 KSGX 291134
TAFPSP
TAF
KPSP 291134Z 2912/3012 VRB05KT P6SM SCT250
     FM300100 32012KT P6SM SKC
     FM300700 VRB05KT P6SM SKC=



000
FTUS46 KSGX 291134
TAFCRQ
TAF
KCRQ 291134Z 2912/3012 VRB06KT 2SM BR BKN002
     FM291530 VRB03KT 3SM BR SCT002
     FM291600 VRB03KT P6SM SKC
     FM291930 25009KT P6SM SKC
     FM300400 VRB05KT P6SM BKN004=



000
FTUS46 KSGX 291134
TAFONT
TAF
KONT 291134Z 2912/3018 VRB04KT P6SM SCT250
     FM292100 25011KT P6SM SCT250
     FM300400 VRB05KT P6SM SKC=



000
FTUS46 KSGX 291020 AAC
TAFSAN
TAF AMD
KSAN 291020Z 2910/3012 VRB03KT 5SM BR BKN006
     FM291200 VRB05KT 2SM BR OVC006
     FM291530 VRB03KT P6SM FEW006
     FM291900 28009KT P6SM SKC
     FM300200 VRB05KT P6SM FEW007
     FM300500 VRB05KT 6SM BR BKN005=



000
FTUS46 KSGX 291020 AAC
TAFSAN
TAF AMD
KSAN 291020Z 2910/3012 VRB03KT 5SM BR BKN006
     FM291200 VRB05KT 2SM BR OVC006
     FM291530 VRB03KT P6SM FEW006
     FM291900 28009KT P6SM SKC
     FM300200 VRB05KT P6SM FEW007
     FM300500 VRB05KT 6SM BR BKN005=



000
FTUS46 KSGX 290913 AAA
TAFCRQ
TAF AMD
KCRQ 290913Z 2909/3006 00000KT 1/2SM FG BKN003
     FM291500 VRB03KT 3SM BR SCT002
     FM291600 VRB03KT P6SM SKC
     FM291930 25009KT P6SM SKC
     FM300300 VRB05KT P6SM BKN003=



000
FTUS46 KSGX 290911 AAB
TAFSAN
TAF AMD
KSAN 290911Z 2909/3012 VRB03KT 5SM BR SCT007
     FM291200 VRB05KT 2SM BR OVC006
     FM291530 VRB03KT P6SM FEW006
     FM291900 28009KT P6SM SKC
     FM300200 VRB05KT P6SM FEW007
     FM300500 VRB05KT 6SM BR BKN005=



000
FTUS46 KSGX 290750 AAA
TAFSAN
TAF AMD
KSAN 290750Z 2908/3012 VRB04KT 6SM BR BKN007
     FM290900 VRB03KT 2SM BR OVC005
     FM291530 VRB03KT P6SM FEW006
     FM291900 28009KT P6SM SKC
     FM300200 VRB05KT P6SM FEW007
     FM300500 VRB05KT 6SM BR BKN005=



000
FTUS46 KSGX 290520
TAFCRQ
TAF
KCRQ 290520Z 2906/3006 VRB03KT 6SM BR OVC006
     FM290900 00000KT 1/4SM FG VV002
     FM291500 VRB03KT 3SM BR SCT002
     FM291600 VRB03KT P6SM SKC
     FM291930 25009KT P6SM SKC
     FM300300 VRB05KT P6SM BKN003=



000
FTUS46 KSGX 290520
TAFSAN
TAF
KSAN 290520Z 2906/3012 VRB04KT 6SM BR BKN007
     FM290900 VRB03KT 1SM BR OVC002
     FM291530 VRB03KT P6SM FEW006
     FM291900 28009KT P6SM SKC
     FM300200 VRB05KT P6SM FEW007
     FM300500 VRB05KT 6SM BR BKN005=



000
FTUS46 KSGX 290520
TAFTRM
TAF
KTRM 290520Z 2906/3006 33010KT P6SM SKC
     FM291100 VRB06KT P6SM SKC=



000
FTUS46 KSGX 290520
TAFSNA
TAF
KSNA 290520Z 2906/3006 VRB03KT P6SM FEW008
     FM290700 VRB03KT 4SM BR BKN005
     FM291300 VRB04KT P6SM FEW006
     FM292000 22010KT P6SM SKC
     FM300200 VRB05KT P6SM FEW006=



000
FTUS46 KSGX 290520
TAFCRQ
TAF
KCRQ 290520Z 2906/3006 VRB03KT 6SM BR OVC006
     FM290900 00000KT 1/4SM FG VV002
     FM291500 VRB03KT 3SM BR SCT002
     FM291600 VRB03KT P6SM SKC
     FM291930 25009KT P6SM SKC
     FM300300 VRB05KT P6SM BKN003=



000
FTUS46 KSGX 290520
TAFSAN
TAF
KSAN 290520Z 2906/3012 VRB04KT 6SM BR BKN007
     FM290900 VRB03KT 1SM BR OVC002
     FM291530 VRB03KT P6SM FEW006
     FM291900 28009KT P6SM SKC
     FM300200 VRB05KT P6SM FEW007
     FM300500 VRB05KT 6SM BR BKN005=



000
FTUS46 KSGX 290520
TAFTRM
TAF
KTRM 290520Z 2906/3006 33010KT P6SM SKC
     FM291100 VRB06KT P6SM SKC=



000
FTUS46 KSGX 290520
TAFPSP
TAF
KPSP 290520Z 2906/3006 32011KT P6SM SCT250
     FM290800 VRB05KT P6SM SCT250
     FM300100 32012KT P6SM SKC=



000
FTUS46 KSGX 290520
TAFPSP
TAF
KPSP 290520Z 2906/3006 32011KT P6SM SCT250
     FM290800 VRB05KT P6SM SCT250
     FM300100 32012KT P6SM SKC=



000
FTUS46 KSGX 290520
TAFSNA
TAF
KSNA 290520Z 2906/3006 VRB03KT P6SM FEW008
     FM290700 VRB03KT 4SM BR BKN005
     FM291300 VRB04KT P6SM FEW006
     FM292000 22010KT P6SM SKC
     FM300200 VRB05KT P6SM FEW006=



000
FTUS46 KSGX 290520
TAFONT
TAF
KONT 290520Z 2906/3012 VRB04KT P6SM SCT250
     FM292100 25012KT P6SM SCT250
     FM300500 VRB05KT P6SM SKC=



000
FTUS46 KSGX 290520
TAFONT
TAF
KONT 290520Z 2906/3012 VRB04KT P6SM SCT250
     FM292100 25012KT P6SM SCT250
     FM300500 VRB05KT P6SM SKC=



    US Dept of Commerce
    National Oceanic and Atmospheric Administration
    National Weather Service
    1325 East West Highway
    Silver Spring, MD 20910
    Page Author: NWS Internet Services Team
Disclaimer
Information Quality
Credits
Glossary
Privacy Policy
Freedom of Information Act (FOIA)
About Us
Career Opportunities